Flight Track Log - Related Links

Times and Time Zones

All times are in EST time to prevent confusion due to time zone crossing. See the JBU56 flight status page for this flight to view local times or setup timezone preferences in your user account.

Time Position Orientation Groundspeed Altitude Reporting Facility
EST Latitude Longitude Course Direction KTS MPH feet Rate Location/Type
Tue 09:56:49 AM 39.0333 -77.5667 38° Northeast 235 270 6,400  Level Potomac TRACON
Tue 09:57:43 AM 39.0833 -77.5500 15° North 271 312 9,800 1,947 Climbing Potomac TRACON
Tue 09:58:00 AM 39.1935 -77.0369 67° East  Level Estimated
Tue 09:58:43 AM 39.1333 -77.4500 57° Northeast 310 357 10,100  Level Potomac TRACON
Tue 09:59:00 AM 39.2548 -76.9306 76° East  Level Estimated
Tue 10:00:00 AM 39.3160 -76.8242 78° East  Level Estimated
Tue 10:00:49 AM 39.1422 -77.2133 87° East 362 417 10,100  Level Washington Center
Tue 10:01:00 AM 39.3771 -76.7176 78° East  Level Estimated
Tue 10:01:50 AM 39.1169 -77.0764 103° East 378 435 11,600  Level Washington Center
Tue 10:02:00 AM 39.4380 -76.6108 38° Northeast  Level Estimated
Tue 10:02:50 AM 39.0914 -76.9289 103° East 401 461 14,300  Level Washington Center
Tue 10:03:51 AM 39.0786 -76.7733 96° East 422 486 16,600 2,182 Climbing Washington Center
Tue 10:04:51 AM 39.0967 -76.6186 81° East 434 499 18,700 2,136 Climbing Washington Center
Tue 10:05:49 AM 39.1208 -76.4531 79° East 443 510 20,800 2,085 Climbing Washington Center
Tue 10:06:49 AM 39.1428 -76.2847 80° East 463 533 22,800 1,091 Climbing Washington Center
Tue 10:07:50 AM 39.1686 -76.1111 79° East 476 548 23,000 492 Climbing Washington Center
Tue 10:08:51 AM 39.1881 -75.9397 82° East 487 560 23,800 1,169 Climbing Washington Center
Tue 10:09:48 AM 39.2592 -75.7981 57° Northeast 455 524 25,300 1,475 Climbing Washington Center
Tue 10:10:49 AM 39.3531 -75.6775 45° Northeast 455 524 26,700 1,388 Climbing Washington Center
Tue 10:11:49 AM 39.4469 -75.5539 45° Northeast 460 529 28,100 1,091 Climbing Washington Center
Tue 10:12:50 AM 39.5447 -75.4275 45° Northeast 471 542 28,900 841 Climbing Washington Center
Tue 10:15:16 AM 39.7711 -75.1111 47° Northeast 498 573 31,000 612 Climbing New York Center
Tue 10:16:16 AM 39.8633 -74.9817 47° Northeast 498 573 31,000  Level New York Center
Tue 10:17:16 AM 39.9597 -74.8439 48° Northeast 498 573 31,000  Level New York Center
Tue 10:18:17 AM 40.0569 -74.6869 51° Northeast 498 573 31,000  Level New York Center
Tue 10:19:16 AM 40.1489 -74.5481 49° Northeast 498 573 31,000  Level New York Center
Tue 10:20:17 AM 40.2342 -74.4222 48° Northeast 506 582 31,000  Level New York Center
Tue 10:21:16 AM 40.3261 -74.2803 50° Northeast 506 582 31,000  Level New York Center
Tue 10:23:35 AM 40.5319 -73.9603 50° Northeast 512 589 31,000  Level Boston Center
Tue 10:24:35 AM 40.6242 -73.8175 50° Northeast 511 588 31,000 -242 Level Boston Center
Tue 10:25:39 AM 40.7208 -73.6608 51° Northeast 510 587 30,500 -1,680 Descending Boston Center
Tue 10:26:40 AM 40.8217 -73.5025 50° Northeast 507 583 27,500 -1,721 Descending Boston Center
Tue 10:27:41 AM 40.9103 -73.3650 50° Northeast 490 564 27,000 -545 Descending Boston Center
Tue 10:28:41 AM 40.9939 -73.2439 48° Northeast 485 558 26,400 -1,339 Descending Boston Center
Tue 10:29:42 AM 41.0819 -73.1106 49° Northeast 484 557 24,300 -2,182 Descending Boston Center
Tue 10:30:42 AM 41.1669 -72.9844 48° Northeast 466 536 22,000 -1,597 Descending Boston Center
Tue 10:31:46 AM 41.2422 -72.8511 53° Northeast 456 525 21,000 -484 Descending Boston Center
Tue 10:32:46 AM 41.3089 -72.6739 63° Northeast 472 543 21,000  Level Boston Center
Tue 10:33:46 AM 41.3672 -72.5150 64° Northeast 474 545 21,000 -198 Level Boston Center
Tue 10:34:47 AM 41.4233 -72.3603 64° Northeast 464 534 20,600 -1,377 Descending Boston Center
Tue 10:35:48 AM 41.4775 -72.2133 64° Northeast 427 491 18,200 -1,785 Descending Boston Center
Tue 10:36:48 AM 41.5308 -72.0700 64° Northeast 402 463 17,000 -581 Descending Boston Center
Tue 10:37:52 AM 41.5753 -71.9369 66° East 395 455 17,000 -242 Level Boston Center
Tue 10:38:52 AM 41.6167 -71.7986 68° East 402 463 16,500 -1,150 Descending Boston Center
Tue 10:39:52 AM 41.6553 -71.6675 68° East 383 441 14,700 -1,983 Descending Boston Center
Tue 10:40:53 AM 41.6936 -71.5375 68° East 358 412 12,500 -1,820 Descending Boston Center
Tue 10:41:54 AM 41.7286 -71.4206 68° East 344 396 11,000 -738 Descending Boston Center
Tue 10:42:55 AM 41.7756 -71.3142 59° Northeast 334 384 11,000  Level Boston Center
Tue 10:43:55 AM 41.8286 -71.1992 58° Northeast 336 387 11,000 -98 Level Boston Center
Tue 10:44:57 AM 41.8767 -71.0936 59° Northeast 333 383 10,800 -706 Descending Boston Center
Tue 10:45:54 AM 41.9167 -71.0000 60° Northeast 295 339 9,600 -1,385 Descending KA90
Tue 10:46:54 AM 41.9833 -70.9500 29° Northeast 259 298 8,100 -1,450 Descending KA90
Tue 10:47:54 AM 42.0333 -70.9000 37° Northeast 253 291 6,700 -1,667 Descending KA90
Tue 10:49:00 AM 42.1000 -70.8333 37° Northeast 245 282 4,600 -1,250 Descending KA90
Tue 10:49:54 AM 42.1500 -70.8000 26° Northeast 236 272 4,200 -384 Descending KA90
Tue 10:51:05 AM 42.2072 -70.8153 349° North 209 241 3,800 -545 Descending Boston Center
Tue 10:52:06 AM 42.2447 -70.8472 328° Northwest 174 200 3,000 -716 Descending Boston Center
Tue 10:52:54 AM 42.2667 -70.8833 309° West 147 169 2,500 -778 Descending KA90
Tue 10:53:54 AM 42.3000 -70.9167 324° Northwest 147 169 1,600 -793 Descending KA90
Tue 10:54:55 AM 42.3333 -70.9500 324° Northwest 121 139 900 -650 Descending KA90
Tue 10:55:54 AM 42.3500 -70.9833 304° West 107 123 300 -610 Descending KA90

Login

Don't have an account? Register now (free) for customized features, flight alerts, and more!